Time;durP1;ratioP1;P1;durP2;ratioP2;P2;SDS_P1;SDS_P2;PMS_P1;PMS_P2;Temp;Humidity;BMP_temperature;BMP_pressure;BME280_temperature;BME280_humidity;BME280_pressure;Samples;Min_cycle;Max_cycle;Signal;HPM_P1;HPM_P2
2022/05/14 00:00:54;;;;;;;2.90;1.30;;;25.10;46.40;;;;;;5022689;28;20627;-61
2022/05/14 00:03:20;;;;;;;2.47;1.20;;;25.10;46.40;;;;;;5021543;28;20033;-61
2022/05/14 00:05:47;;;;;;;2.10;1.20;;;25.10;46.40;;;;;;5017676;28;20096;-60
2022/05/14 00:08:13;;;;;;;1.63;1.17;;;25.10;46.40;;;;;;5017951;28;20515;-61
2022/05/14 00:13:24;;;;;;;2.22;1.17;;;25.10;46.40;;;;;;5020217;28;20117;-62
2022/05/14 00:15:51;;;;;;;1.90;1.00;;;25.10;46.40;;;;;;5019471;28;20557;-63
2022/05/14 00:18:19;;;;;;;1.90;1.00;;;25.10;46.40;;;;;;5021278;28;20030;-62
2022/05/14 00:20:45;;;;;;;1.40;1.00;;;25.10;46.50;;;;;;5020187;28;20078;-62
2022/05/14 00:23:10;;;;;;;2.08;1.20;;;25.10;46.40;;;;;;5019178;28;20033;-62
2022/05/14 00:25:37;;;;;;;1.63;1.08;;;25.10;46.40;;;;;;5019663;28;20082;-60
2022/05/14 00:28:03;;;;;;;1.80;1.02;;;25.10;46.50;;;;;;5021256;28;20029;-62
2022/05/14 00:30:31;;;;;;;1.75;1.20;;;25.10;46.50;;;;;;5016942;28;20044;-61
2022/05/14 00:32:57;;;;;;;1.88;1.10;;;25.10;46.50;;;;;;5020341;28;20115;-62
2022/05/14 00:35:24;;;;;;;1.98;1.00;;;25.10;46.50;;;;;;5018534;28;20033;-62
2022/05/14 00:37:50;;;;;;;2.17;1.10;;;25.00;46.40;;;;;;5019600;28;20585;-63
2022/05/14 00:40:51;;;;;;;1.67;1.00;;;25.00;46.40;;;;;;5017783;28;20045;-61
2022/05/14 00:43:17;;;;;;;1.85;1.10;;;25.00;46.40;;;;;;5008945;28;20033;-61
2022/05/14 00:45:50;;;;;;;1.85;1.00;;;25.10;46.50;;;;;;5018182;28;20036;-63
2022/05/14 00:48:16;;;;;;;2.00;1.13;;;25.00;46.50;;;;;;5020017;28;20108;-61
2022/05/14 00:50:49;;;;;;;2.72;1.08;;;25.00;46.40;;;;;;5017735;28;20140;-60
2022/05/14 00:53:16;;;;;;;3.92;1.55;;;25.00;46.50;;;;;;5019771;28;20043;-60
2022/05/14 00:55:45;;;;;;;1.95;1.10;;;25.00;46.50;;;;;;5019149;28;20143;-62
2022/05/14 00:58:21;;;;;;;2.20;1.23;;;25.00;46.50;;;;;;5018531;28;20536;-62
2022/05/14 01:00:47;;;;;;;1.63;0.93;;;25.00;46.80;;;;;;5019154;28;20033;-63
2022/05/14 01:03:12;;;;;;;1.73;1.00;;;25.00;46.50;;;;;;5019793;28;20043;-63
2022/05/14 01:05:38;;;;;;;1.65;1.00;;;25.00;46.50;;;;;;5017393;28;20026;-61
2022/05/14 01:08:05;;;;;;;1.73;1.10;;;25.00;46.50;;;;;;5019953;28;20037;-61
2022/05/14 01:10:38;;;;;;;2.03;1.08;;;25.00;46.60;;;;;;5019905;28;21188;-62
2022/05/14 01:13:04;;;;;;;1.77;1.00;;;25.00;46.60;;;;;;5020983;28;20045;-61
2022/05/14 01:15:49;;;;;;;1.70;1.02;;;24.90;46.50;;;;;;5020445;28;20765;-61
2022/05/14 01:18:17;;;;;;;1.70;1.00;;;25.00;46.60;;;;;;5020590;28;20028;-62
2022/05/14 01:20:57;;;;;;;1.13;0.88;;;24.90;46.50;;;;;;5018750;28;20058;-61
2022/05/14 01:26:36;;;;;;;1.40;0.88;;;24.90;46.60;;;;;;4995053;28;20045;-61
2022/05/14 01:29:09;;;;;;;1.35;0.90;;;24.90;46.60;;;;;;5026454;28;20102;-61
2022/05/14 01:31:36;;;;;;;1.30;0.98;;;24.90;46.60;;;;;;5026402;28;20048;-59
2022/05/14 01:34:08;;;;;;;1.80;1.00;;;24.90;46.60;;;;;;5024752;28;20099;-59
2022/05/14 01:36:35;;;;;;;1.52;1.02;;;24.90;46.60;;;;;;5023377;28;20075;-62
2022/05/14 01:39:02;;;;;;;1.42;1.00;;;24.90;47.20;;;;;;5024983;28;20498;-62
2022/05/14 01:41:27;;;;;;;2.15;1.20;;;24.90;46.60;;;;;;5026685;28;20022;-61
2022/05/14 01:43:53;;;;;;;2.13;1.10;;;24.90;46.60;;;;;;5027406;28;20033;-59
2022/05/14 01:46:19;;;;;;;1.98;0.90;;;24.90;46.60;;;;;;5027270;28;20035;-61
2022/05/14 01:48:46;;;;;;;1.30;0.90;;;24.90;46.70;;;;;;5026164;28;20355;-61
2022/05/14 01:51:12;;;;;;;1.52;1.02;;;24.90;46.70;;;;;;5025312;28;20422;-61
2022/05/14 01:53:38;;;;;;;1.60;0.93;;;24.80;46.70;;;;;;5025355;28;20044;-62
2022/05/14 01:56:04;;;;;;;1.70;0.90;;;24.80;46.60;;;;;;5024773;28;20493;-61
2022/05/14 01:58:38;;;;;;;1.33;0.90;;;24.80;46.60;;;;;;5026005;28;20040;-59
2022/05/14 02:01:19;;;;;;;1.25;0.90;;;24.80;46.70;;;;;;5024917;28;20268;-59
2022/05/14 02:03:53;;;;;;;1.48;1.00;;;24.80;46.70;;;;;;5028605;28;20104;-63
2022/05/14 02:06:20;;;;;;;1.38;0.98;;;24.80;46.70;;;;;;5023964;28;20037;-61
2022/05/14 02:08:46;;;;;;;1.45;0.90;;;24.80;46.70;;;;;;5027719;28;20512;-59
2022/05/14 02:11:16;;;;;;;1.77;1.20;;;24.80;46.70;;;;;;5025510;28;20346;-59
2022/05/14 02:13:43;;;;;;;1.45;0.93;;;24.80;46.70;;;;;;5027760;28;20041;-61
2022/05/14 02:16:08;;;;;;;1.63;0.93;;;24.80;46.70;;;;;;5025502;28;20047;-63
2022/05/14 02:18:35;;;;;;;1.25;0.90;;;24.80;46.70;;;;;;5026320;28;20433;-61
2022/05/14 02:21:01;;;;;;;1.08;0.90;;;24.80;46.70;;;;;;5025209;28;20080;-62
2022/05/14 02:23:27;;;;;;;1.42;0.98;;;24.80;46.70;;;;;;5025258;28;20026;-60
2022/05/14 02:25:53;;;;;;;0.95;0.80;;;24.80;46.70;;;;;;5025039;28;20106;-60
2022/05/14 02:28:19;;;;;;;1.80;0.90;;;24.80;46.80;;;;;;5019986;28;20117;-63
2022/05/14 02:30:44;;;;;;;1.20;0.80;;;24.80;46.80;;;;;;5022222;28;20059;-61
2022/05/14 02:33:10;;;;;;;1.25;0.80;;;24.80;46.70;;;;;;5021882;28;20087;-61
2022/05/14 02:35:37;;;;;;;1.08;0.80;;;24.80;46.70;;;;;;5020595;28;20042;-61
2022/05/14 02:38:03;;;;;;;1.08;0.80;;;24.80;46.70;;;;;;5023582;28;20753;-59
2022/05/14 02:40:29;;;;;;;1.38;0.95;;;24.80;46.80;;;;;;5022904;28;20151;-61
2022/05/14 02:42:56;;;;;;;0.95;0.80;;;24.80;46.80;;;;;;5023108;28;20125;-61
2022/05/14 02:45:21;;;;;;;1.00;0.80;;;24.70;46.70;;;;;;5022936;28;20513;-61
2022/05/14 02:47:47;;;;;;;0.77;0.70;;;24.70;46.70;;;;;;5021891;28;20211;-62
2022/05/14 02:50:13;;;;;;;1.33;0.90;;;24.70;46.80;;;;;;5020106;28;20056;-61
2022/05/14 02:52:38;;;;;;;1.30;0.80;;;24.70;46.80;;;;;;5023524;28;20112;-61
2022/05/14 02:55:06;;;;;;;1.10;0.82;;;24.70;46.70;;;;;;5021193;28;20041;-59
2022/05/14 02:57:32;;;;;;;1.35;0.88;;;24.70;46.80;;;;;;5022649;28;20075;-63
2022/05/14 02:59:58;;;;;;;1.10;0.82;;;24.70;46.70;;;;;;5020402;28;20648;-62
2022/05/14 03:02:24;;;;;;;1.08;0.77;;;24.70;46.80;;;;;;5020157;28;20116;-59
2022/05/14 03:04:50;;;;;;;1.30;0.82;;;24.70;46.80;;;;;;5017284;28;20136;-61
2022/05/14 03:07:16;;;;;;;1.73;1.23;;;24.70;46.80;;;;;;5021190;28;20120;-60
2022/05/14 03:09:42;;;;;;;1.90;0.90;;;24.70;46.80;;;;;;5020806;28;20029;-61
2022/05/14 03:12:11;;;;;;;1.23;0.90;;;24.70;46.80;;;;;;5023358;28;20039;-62
2022/05/14 03:14:38;;;;;;;1.85;0.82;;;24.70;46.80;;;;;;5003716;28;20796;-61
2022/05/14 03:17:04;;;;;;;1.02;0.80;;;24.70;46.80;;;;;;5021148;28;20063;-61
2022/05/14 03:19:30;;;;;;;1.20;0.90;;;24.60;46.80;;;;;;5017493;28;20108;-63
2022/05/14 03:21:55;;;;;;;1.00;0.90;;;24.60;46.80;;;;;;5021505;28;20083;-62
2022/05/14 03:24:23;;;;;;;0.82;0.80;;;24.60;46.80;;;;;;5021627;28;20052;-61
2022/05/14 03:26:49;;;;;;;1.13;0.73;;;24.60;46.80;;;;;;5021435;28;20025;-61
2022/05/14 03:29:15;;;;;;;1.30;0.80;;;24.60;46.80;;;;;;5020515;28;20104;-63
2022/05/14 03:31:41;;;;;;;1.05;0.70;;;24.60;46.80;;;;;;5021315;28;21423;-61
2022/05/14 03:34:10;;;;;;;0.95;0.80;;;24.60;46.80;;;;;;5019852;28;20083;-62
2022/05/14 03:36:37;;;;;;;1.10;0.80;;;24.60;46.90;;;;;;5021673;28;20032;-62
2022/05/14 03:39:03;;;;;;;0.77;0.70;;;24.60;47.40;;;;;;5020882;28;20029;-62
2022/05/14 03:41:29;;;;;;;1.20;0.73;;;24.60;46.90;;;;;;5020611;28;20033;-61
2022/05/14 03:43:54;;;;;;;1.05;0.70;;;24.60;46.90;;;;;;5022362;28;20083;-62
2022/05/14 03:46:20;;;;;;;0.90;0.60;;;24.60;46.80;;;;;;5019965;28;20067;-62
2022/05/14 03:48:46;;;;;;;0.85;0.70;;;24.60;46.90;;;;;;5019178;28;20037;-61
2022/05/14 03:51:11;;;;;;;1.23;0.90;;;24.60;46.90;;;;;;5021591;28;20083;-61
2022/05/14 03:53:38;;;;;;;1.02;0.80;;;24.50;46.80;;;;;;5020553;28;20025;-61
2022/05/14 03:56:05;;;;;;;2.25;0.90;;;24.60;46.90;;;;;;5020519;28;20041;-61
2022/05/14 03:58:31;;;;;;;1.13;0.80;;;24.50;46.90;;;;;;5022395;28;20516;-61
2022/05/14 04:00:57;;;;;;;1.00;0.80;;;24.50;47.40;;;;;;5022046;28;20110;-63
2022/05/14 04:03:24;;;;;;;1.05;0.80;;;24.50;46.90;;;;;;5021068;28;20048;-63
2022/05/14 04:05:49;;;;;;;1.35;0.80;;;24.50;46.90;;;;;;5018431;28;20138;-60
2022/05/14 04:08:17;;;;;;;1.52;1.10;;;24.50;46.90;;;;;;5020838;28;20029;-60
2022/05/14 04:10:43;;;;;;;0.82;0.80;;;24.50;46.90;;;;;;5018348;28;20496;-60
2022/05/14 04:13:09;;;;;;;1.20;0.80;;;24.50;46.90;;;;;;5020219;28;20131;-59
2022/05/14 04:15:34;;;;;;;1.00;0.85;;;24.50;46.90;;;;;;5020368;28;20034;-63
2022/05/14 04:18:00;;;;;;;1.15;0.80;;;24.50;47.00;;;;;;5019822;28;20033;-61
2022/05/14 04:20:26;;;;;;;0.80;0.60;;;24.50;47.00;;;;;;5015972;28;20029;-62
2022/05/14 04:22:51;;;;;;;1.05;0.80;;;24.50;47.00;;;;;;5019838;28;20033;-63
2022/05/14 04:25:18;;;;;;;0.82;0.80;;;24.50;47.00;;;;;;5017542;28;20029;-59
2022/05/14 04:27:44;;;;;;;0.77;0.75;;;24.50;47.00;;;;;;5020389;28;20127;-62
2022/05/14 04:30:11;;;;;;;0.90;0.73;;;24.50;47.00;;;;;;5019508;28;20056;-61
2022/05/14 04:32:37;;;;;;;1.35;0.80;;;24.50;47.00;;;;;;5020862;28;20044;-61
2022/05/14 04:35:03;;;;;;;0.95;0.73;;;24.50;47.00;;;;;;5018064;28;20052;-62
2022/05/14 04:37:29;;;;;;;1.25;0.90;;;24.50;47.00;;;;;;5017914;28;20182;-61
2022/05/14 04:39:54;;;;;;;0.70;0.70;;;24.50;47.00;;;;;;5019242;28;20140;-62
2022/05/14 04:42:20;;;;;;;0.90;0.70;;;24.40;47.00;;;;;;5020221;28;20028;-60
2022/05/14 04:44:46;;;;;;;1.00;0.75;;;24.50;47.00;;;;;;5017944;28;20022;-60
2022/05/14 04:47:12;;;;;;;1.15;0.70;;;24.40;47.00;;;;;;5018274;28;20026;-61
2022/05/14 04:49:39;;;;;;;0.85;0.80;;;24.40;47.00;;;;;;5015758;28;20131;-60
2022/05/14 04:52:05;;;;;;;0.63;0.63;;;24.40;47.00;;;;;;5017936;28;20050;-61
2022/05/14 04:54:30;;;;;;;0.80;0.70;;;24.40;47.00;;;;;;5016212;28;20044;-61
2022/05/14 04:56:56;;;;;;;0.98;0.80;;;24.40;47.00;;;;;;5019198;28;20091;-59
2022/05/14 04:59:22;;;;;;;0.98;0.75;;;24.40;47.00;;;;;;5020551;28;20805;-60
2022/05/14 05:04:33;;;;;;;0.88;0.80;;;24.40;47.10;;;;;;5015958;28;20326;-61
2022/05/14 05:06:58;;;;;;;0.85;0.70;;;24.40;47.10;;;;;;5021283;28;20033;-61
2022/05/14 05:09:24;;;;;;;1.15;0.88;;;24.40;47.00;;;;;;5017698;28;20044;-61
2022/05/14 05:11:50;;;;;;;0.73;0.70;;;24.40;47.00;;;;;;5019518;28;20446;-59
2022/05/14 05:14:16;;;;;;;0.80;0.70;;;24.40;47.10;;;;;;5019150;28;20025;-59
2022/05/14 05:16:42;;;;;;;0.70;0.70;;;24.40;47.10;;;;;;5018386;28;20116;-61
2022/05/14 05:19:07;;;;;;;0.88;0.70;;;24.40;47.10;;;;;;5017184;28;20691;-62
2022/05/14 05:21:33;;;;;;;1.45;0.82;;;24.40;47.10;;;;;;5016333;28;20021;-62
2022/05/14 05:23:59;;;;;;;1.08;0.80;;;24.30;47.00;;;;;;5009331;28;20091;-60
2022/05/14 05:26:25;;;;;;;0.90;0.80;;;24.30;47.10;;;;;;5019143;28;20056;-60
2022/05/14 05:28:50;;;;;;;1.10;0.90;;;24.30;47.00;;;;;;5019272;28;20565;-59
2022/05/14 05:31:17;;;;;;;1.05;0.80;;;24.30;47.00;;;;;;5020148;28;20475;-59
2022/05/14 05:33:43;;;;;;;0.80;0.70;;;24.40;47.10;;;;;;5017215;28;20048;-60
2022/05/14 05:36:09;;;;;;;1.17;0.75;;;24.30;47.00;;;;;;5017721;28;20037;-61
2022/05/14 05:38:34;;;;;;;0.90;0.70;;;24.30;47.00;;;;;;5018975;28;20049;-59
2022/05/14 05:41:00;;;;;;;0.98;0.80;;;24.30;47.00;;;;;;5019406;28;20405;-60
2022/05/14 05:43:26;;;;;;;1.13;0.85;;;24.30;47.00;;;;;;5019039;28;20025;-60
2022/05/14 05:45:52;;;;;;;0.95;0.70;;;24.30;47.00;;;;;;5019368;28;20108;-59
2022/05/14 05:48:18;;;;;;;0.90;0.70;;;24.30;47.00;;;;;;5018756;28;20171;-61
2022/05/14 05:50:48;;;;;;;1.67;0.70;;;24.30;47.10;;;;;;5019918;28;20033;-61
2022/05/14 05:53:14;;;;;;;1.40;0.90;;;24.30;47.00;;;;;;5019490;28;20029;-60
2022/05/14 05:58:24;;;;;;;0.73;0.60;;;24.30;47.00;;;;;;5021347;28;20043;-61
2022/05/14 06:00:50;;;;;;;1.58;0.80;;;24.30;47.00;;;;;;5018315;28;20034;-62
2022/05/14 06:03:16;;;;;;;0.77;0.70;;;24.30;47.10;;;;;;5020198;28;20437;-61
2022/05/14 06:05:41;;;;;;;1.42;0.88;;;24.30;47.00;;;;;;5020903;28;20033;-60
2022/05/14 06:08:09;;;;;;;1.38;0.90;;;24.30;47.10;;;;;;5023680;28;20083;-59
2022/05/14 06:10:35;;;;;;;0.80;0.70;;;24.30;47.10;;;;;;5020798;28;20022;-61
2022/05/14 06:13:01;;;;;;;0.73;0.70;;;24.30;47.00;;;;;;5024899;28;20079;-61
2022/05/14 06:15:27;;;;;;;1.23;0.80;;;24.20;47.00;;;;;;5021719;28;20064;-60
2022/05/14 06:17:52;;;;;;;1.02;0.80;;;24.20;47.00;;;;;;5023707;28;20038;-59
2022/05/14 06:20:18;;;;;;;1.25;0.75;;;24.30;47.00;;;;;;5020324;28;20037;-59
2022/05/14 06:22:44;;;;;;;1.05;0.70;;;24.20;47.00;;;;;;5021576;28;20428;-61
2022/05/14 06:25:11;;;;;;;0.70;0.65;;;24.30;47.00;;;;;;5021650;28;20068;-61
2022/05/14 06:27:36;;;;;;;1.25;0.70;;;24.20;47.00;;;;;;5022332;28;20334;-61
2022/05/14 06:30:03;;;;;;;0.85;0.60;;;24.30;47.00;;;;;;5021225;28;20024;-61
2022/05/14 06:32:29;;;;;;;1.40;0.80;;;24.20;47.00;;;;;;5023047;28;20173;-60
2022/05/14 06:34:54;;;;;;;1.33;0.75;;;24.30;47.00;;;;;;5020014;28;20571;-61
2022/05/14 06:37:20;;;;;;;1.05;0.60;;;24.20;47.00;;;;;;5019794;28;20036;-61
2022/05/14 06:39:46;;;;;;;1.33;0.80;;;24.30;47.00;;;;;;5021002;28;20105;-61
2022/05/14 06:42:13;;;;;;;0.80;0.68;;;24.30;47.00;;;;;;5022340;28;20543;-60
2022/05/14 06:44:39;;;;;;;1.02;0.70;;;24.20;47.00;;;;;;5021958;28;20033;-60
2022/05/14 06:47:05;;;;;;;0.50;0.50;;;24.20;47.00;;;;;;5024219;28;20123;-61
2022/05/14 06:49:31;;;;;;;0.63;0.63;;;24.20;47.00;;;;;;5021910;28;20032;-60
2022/05/14 06:52:00;;;;;;;1.83;0.70;;;24.20;47.00;;;;;;5021333;28;20651;-61
2022/05/14 06:54:26;;;;;;;1.73;0.70;;;24.20;47.00;;;;;;5017025;28;20135;-61
2022/05/14 06:56:52;;;;;;;1.05;0.70;;;24.20;47.00;;;;;;5022765;28;20064;-60
2022/05/14 06:59:17;;;;;;;1.27;0.80;;;24.20;47.00;;;;;;5020409;28;20021;-61
2022/05/14 07:01:46;;;;;;;0.80;0.70;;;24.20;47.00;;;;;;5020831;28;20059;-61
2022/05/14 07:07:00;;;;;;;1.65;0.80;;;24.20;47.00;;;;;;5023473;28;20071;-60
2022/05/14 07:09:28;;;;;;;0.82;0.75;;;24.10;46.90;;;;;;5020585;28;20500;-59
2022/05/14 07:11:57;;;;;;;1.33;0.80;;;24.20;47.00;;;;;;5021987;28;20485;-61
2022/05/14 07:14:24;;;;;;;0.77;0.70;;;24.10;46.90;;;;;;5020850;28;20044;-60
2022/05/14 07:16:50;;;;;;;1.88;0.90;;;24.20;47.00;;;;;;5022312;28;20091;-59
2022/05/14 07:19:16;;;;;;;0.88;0.70;;;24.20;47.00;;;;;;5019468;28;20512;-61
2022/05/14 07:21:44;;;;;;;0.90;0.70;;;24.10;47.00;;;;;;5018506;28;20092;-61
2022/05/14 07:24:15;;;;;;;0.88;0.60;;;24.10;47.00;;;;;;5021007;28;20056;-61
2022/05/14 07:26:41;;;;;;;0.80;0.70;;;24.10;47.00;;;;;;5022086;28;20077;-61
2022/05/14 07:29:11;;;;;;;1.20;0.80;;;24.20;47.00;;;;;;5022469;28;20047;-60
2022/05/14 07:31:38;;;;;;;0.95;0.80;;;24.10;47.50;;;;;;5018711;28;20485;-60
2022/05/14 07:34:04;;;;;;;0.60;0.60;;;24.10;47.00;;;;;;5017449;28;20075;-59
2022/05/14 07:36:33;;;;;;;0.98;0.70;;;24.10;47.50;;;;;;5021695;28;20124;-61
2022/05/14 07:39:03;;;;;;;1.73;0.85;;;24.10;47.00;;;;;;5022350;28;20040;-60
2022/05/14 07:41:29;;;;;;;1.17;0.70;;;24.10;47.00;;;;;;5021181;28;20029;-60
2022/05/14 07:43:56;;;;;;;0.90;0.70;;;24.10;47.00;;;;;;5021273;28;20029;-61
2022/05/14 07:46:27;;;;;;;0.90;0.63;;;24.10;47.00;;;;;;5015349;28;20040;-60
2022/05/14 07:48:56;;;;;;;1.13;0.70;;;24.10;47.00;;;;;;5021160;28;20041;-61
2022/05/14 07:51:22;;;;;;;1.20;0.70;;;24.10;47.00;;;;;;5022086;28;20045;-61
2022/05/14 07:53:47;;;;;;;1.00;0.70;;;24.10;47.00;;;;;;5020883;28;20064;-62
2022/05/14 07:56:13;;;;;;;1.33;0.70;;;24.10;47.00;;;;;;5020797;28;20120;-61
2022/05/14 07:58:42;;;;;;;0.90;0.70;;;24.10;47.00;;;;;;5021268;28;21226;-61
2022/05/14 08:01:07;;;;;;;1.13;0.77;;;24.10;47.00;;;;;;5017911;28;20037;-65
2022/05/14 08:03:33;;;;;;;1.00;0.60;;;24.10;47.00;;;;;;5017481;28;20030;-61
2022/05/14 08:05:59;;;;;;;1.05;0.70;;;24.10;47.00;;;;;;5015269;28;20033;-62
2022/05/14 08:08:25;;;;;;;1.02;0.73;;;24.10;47.10;;;;;;5018594;28;20025;-61
2022/05/14 08:10:51;;;;;;;0.85;0.70;;;24.10;47.10;;;;;;5019098;28;20041;-59
2022/05/14 08:13:22;;;;;;;1.08;0.73;;;24.10;47.00;;;;;;5019077;28;20033;-61
2022/05/14 08:15:49;;;;;;;1.63;0.80;;;24.10;46.80;;;;;;5016324;28;20037;-61
2022/05/14 08:18:16;;;;;;;1.85;0.90;;;24.10;46.50;;;;;;5014742;28;20116;-60
2022/05/14 08:20:44;;;;;;;1.40;0.77;;;24.10;46.10;;;;;;5013044;28;20200;-60
2022/05/14 08:25:56;;;;;;;1.58;0.70;;;24.10;45.50;;;;;;5014353;28;20039;-62
2022/05/14 08:28:22;;;;;;;1.33;0.68;;;24.10;45.30;;;;;;5014752;28;20095;-58
2022/05/14 08:30:48;;;;;;;1.42;0.70;;;24.10;44.90;;;;;;5017409;28;20054;-59
2022/05/14 08:33:14;;;;;;;1.25;0.82;;;24.00;44.50;;;;;;5016184;28;20025;-61
2022/05/14 08:35:42;;;;;;;1.48;0.70;;;24.10;44.20;;;;;;5013320;28;20045;-61
2022/05/14 08:38:10;;;;;;;1.05;0.60;;;24.10;44.30;;;;;;5018106;28;20025;-61
2022/05/14 08:40:50;;;;;;;1.77;0.80;;;24.10;43.70;;;;;;5017086;28;20028;-61
2022/05/14 08:43:32;;;;;;;1.23;0.75;;;24.10;43.70;;;;;;5018047;28;20040;-60
2022/05/14 08:45:59;;;;;;;1.95;0.80;;;24.00;43.70;;;;;;5011569;28;20040;-61
2022/05/14 08:48:30;;;;;;;1.35;0.70;;;24.00;43.80;;;;;;5016607;28;20025;-61
2022/05/14 08:51:03;;;;;;;0.90;0.68;;;24.10;43.90;;;;;;5010359;28;20108;-60
2022/05/14 08:53:31;;;;;;;1.08;0.60;;;24.00;44.50;;;;;;5013630;28;20426;-61
2022/05/14 08:56:02;;;;;;;0.98;0.70;;;24.10;44.20;;;;;;5012624;28;20040;-59
2022/05/14 08:59:15;;;;;;;0.98;0.68;;;24.00;44.20;;;;;;5016346;28;20045;-61
2022/05/14 09:01:43;;;;;;;0.60;0.60;;;24.10;44.30;;;;;;5000291;28;20586;-61
2022/05/14 09:04:11;;;;;;;1.15;0.68;;;24.10;45.00;;;;;;5015123;28;20117;-61
2022/05/14 09:06:38;;;;;;;0.55;0.55;;;24.10;44.60;;;;;;5020043;28;20435;-61
2022/05/14 09:09:06;;;;;;;2.28;0.70;;;24.10;44.70;;;;;;5019676;28;20797;-62
2022/05/14 09:11:59;;;;;;;1.35;0.73;;;24.10;44.70;;;;;;5018719;28;20033;-61
2022/05/14 09:14:29;;;;;;;2.65;0.70;;;24.10;44.70;;;;;;5020250;28;20029;-59
2022/05/14 09:17:11;;;;;;;1.63;0.63;;;24.10;44.80;;;;;;5022638;28;20515;-59
2022/05/14 09:19:40;;;;;;;0.90;0.60;;;24.00;44.80;;;;;;5017779;28;20431;-61
2022/05/14 09:22:33;;;;;;;1.00;0.65;;;24.10;44.90;;;;;;5019929;28;20026;-61
2022/05/14 09:25:21;;;;;;;0.93;0.55;;;24.00;44.90;;;;;;5015170;28;20491;-60
2022/05/14 09:28:04;;;;;;;1.70;0.70;;;24.10;45.00;;;;;;5022049;28;20507;-59
2022/05/14 09:30:35;;;;;;;1.00;0.57;;;24.10;45.00;;;;;;5020378;28;20029;-61
2022/05/14 09:33:03;;;;;;;1.38;0.80;;;24.10;45.00;;;;;;5020588;28;20033;-61
2022/05/14 09:35:34;;;;;;;0.98;0.63;;;24.10;45.00;;;;;;5016110;28;20212;-61
2022/05/14 09:38:21;;;;;;;1.00;0.70;;;24.10;45.00;;;;;;5021313;28;20025;-60
2022/05/14 09:40:47;;;;;;;1.85;0.60;;;24.10;45.00;;;;;;5023365;28;20075;-60
2022/05/14 09:43:33;;;;;;;1.10;0.60;;;24.10;45.00;;;;;;5025335;28;20025;-58
2022/05/14 09:46:01;;;;;;;1.13;0.60;;;24.10;45.00;;;;;;5024879;28;20045;-61
2022/05/14 09:48:48;;;;;;;0.87;0.60;;;24.10;45.00;;;;;;5023811;28;20060;-61
2022/05/14 09:51:28;;;;;;;1.02;0.60;;;24.10;45.60;;;;;;5006093;28;20453;-61
2022/05/14 09:53:54;;;;;;;;;;;24.10;45.10;;;;;;5023156;28;20048;-59
2022/05/14 09:56:46;;;;;;;1.08;0.60;;;24.10;45.10;;;;;;5024526;28;20276;-61
2022/05/14 09:59:21;;;;;;;1.75;0.60;;;24.10;45.10;;;;;;5023966;28;20082;-61
2022/05/14 10:01:58;;;;;;;0.40;0.40;;;24.10;45.10;;;;;;5026205;28;20063;-61
2022/05/14 10:04:41;;;;;;;1.33;0.80;;;24.10;45.20;;;;;;5020976;28;20408;-61
2022/05/14 10:07:28;;;;;;;0.95;0.60;;;24.10;45.30;;;;;;5019045;28;20802;-61
2022/05/14 10:10:13;;;;;;;0.73;0.60;;;24.10;45.40;;;;;;5018306;28;20025;-61
2022/05/14 10:12:51;;;;;;;0.63;0.50;;;24.10;45.40;;;;;;5021390;28;20420;-60
2022/05/14 10:15:38;;;;;;;0.82;0.50;;;24.10;45.40;;;;;;5000910;28;20511;-62
2022/05/14 10:18:20;;;;;;;0.90;0.57;;;24.10;45.40;;;;;;5021418;28;20029;-62
2022/05/14 10:21:05;;;;;;;1.05;0.55;;;24.20;45.40;;;;;;5019646;28;20675;-61
2022/05/14 10:26:50;;;;;;;0.60;0.50;;;24.10;45.40;;;;;;5020546;28;20213;-62
2022/05/14 10:29:25;;;;;;;0.93;0.63;;;24.20;45.40;;;;;;5020411;28;20029;-59
2022/05/14 10:32:04;;;;;;;1.17;0.70;;;24.20;45.50;;;;;;5019637;28;20104;-61
2022/05/14 10:34:55;;;;;;;0.77;0.50;;;24.10;45.40;;;;;;5019686;28;20040;-61
2022/05/14 10:37:32;;;;;;;0.85;0.52;;;24.20;45.50;;;;;;5009993;28;20544;-60
2022/05/14 10:40:07;;;;;;;1.52;0.80;;;24.20;45.50;;;;;;5019080;28;20524;-61
2022/05/14 10:42:59;;;;;;;1.60;0.90;;;24.20;45.50;;;;;;5019921;28;20056;-61
2022/05/14 10:45:34;;;;;;;1.10;0.80;;;24.10;45.50;;;;;;5020883;28;20037;-62
2022/05/14 10:48:22;;;;;;;1.23;0.63;;;24.20;45.60;;;;;;5022959;28;20397;-61
2022/05/14 10:50:48;;;;;;;1.40;0.65;;;24.10;45.60;;;;;;5017747;28;20060;-61
2022/05/14 10:53:15;;;;;;;1.50;0.90;;;24.20;45.60;;;;;;5020001;28;20132;-61
2022/05/14 10:55:50;;;;;;;1.80;0.80;;;24.20;45.60;;;;;;5018683;28;20830;-62
2022/05/14 10:58:36;;;;;;;1.42;0.80;;;24.20;45.70;;;;;;5020550;28;20449;-61
2022/05/14 11:01:06;;;;;;;1.23;0.75;;;24.20;45.70;;;;;;5019471;28;20087;-61
2022/05/14 11:03:36;;;;;;;1.55;0.80;;;24.20;45.70;;;;;;5020949;28;20048;-61
2022/05/14 11:06:01;;;;;;;1.48;0.70;;;24.10;45.70;;;;;;5018436;28;20055;-60
2022/05/14 11:08:47;;;;;;;1.88;0.88;;;24.20;45.70;;;;;;5018905;28;20021;-62
2022/05/14 11:11:19;;;;;;;1.50;0.70;;;24.20;45.80;;;;;;5020410;28;20255;-61
2022/05/14 11:14:03;;;;;;;1.83;0.75;;;24.20;45.80;;;;;;5019931;28;20045;-61
2022/05/14 11:16:51;;;;;;;2.10;0.85;;;24.20;45.80;;;;;;5017929;28;20557;-62
2022/05/14 11:19:32;;;;;;;1.73;0.80;;;24.20;45.80;;;;;;5018701;28;20361;-61
2022/05/14 11:22:00;;;;;;;1.58;0.90;;;24.20;45.90;;;;;;5020843;28;20087;-61
2022/05/14 11:24:39;;;;;;;2.20;0.70;;;24.20;45.80;;;;;;5020200;28;20021;-62
2022/05/14 11:27:06;;;;;;;1.30;0.80;;;24.20;45.90;;;;;;5023079;28;20063;-61
2022/05/14 11:29:49;;;;;;;1.48;0.75;;;24.20;45.90;;;;;;5021675;28;20040;-59
2022/05/14 11:32:18;;;;;;;1.88;0.80;;;24.20;45.90;;;;;;5019712;28;20099;-61
2022/05/14 11:34:55;;;;;;;;;;;24.20;45.90;;;;;;5021269;28;20060;-61
2022/05/14 11:37:29;;;;;;;2.63;1.00;;;24.20;45.90;;;;;;5022000;28;20393;-62
2022/05/14 11:40:16;;;;;;;1.70;1.10;;;24.20;45.90;;;;;;5020196;28;20501;-61
2022/05/14 11:42:44;;;;;;;1.92;0.90;;;24.20;46.00;;;;;;5023154;28;20032;-61
2022/05/14 11:45:28;;;;;;;1.20;0.77;;;24.20;46.00;;;;;;5022274;28;20038;-59
2022/05/14 11:47:58;;;;;;;1.73;0.80;;;24.20;46.10;;;;;;5020364;28;20108;-61
2022/05/14 11:50:31;;;;;;;1.55;0.90;;;24.20;46.10;;;;;;5018012;28;20063;-61
2022/05/14 11:53:02;;;;;;;1.75;0.80;;;24.20;46.10;;;;;;5020185;28;20093;-61
2022/05/14 11:55:53;;;;;;;2.78;1.00;;;24.20;46.10;;;;;;5019082;28;20086;-60
2022/05/14 11:58:30;;;;;;;1.88;0.88;;;24.20;46.10;;;;;;5019755;28;20041;-62
2022/05/14 12:00:58;;;;;;;1.98;0.80;;;24.20;46.20;;;;;;5020221;28;20032;-62
2022/05/14 12:03:30;;;;;;;1.98;0.80;;;24.20;46.20;;;;;;5019420;28;20060;-61
2022/05/14 12:06:02;;;;;;;1.33;0.70;;;24.20;46.20;;;;;;5021801;28;20043;-61
2022/05/14 12:08:29;;;;;;;1.98;1.00;;;24.20;46.20;;;;;;5019208;28;20523;-60
2022/05/14 12:11:27;;;;;;;3.05;1.00;;;24.20;46.20;;;;;;5018373;28;20063;-61
2022/05/14 12:13:58;;;;;;;2.08;1.00;;;24.20;46.20;;;;;;5023651;28;20080;-61
2022/05/14 12:16:33;;;;;;;2.28;1.10;;;24.20;46.30;;;;;;5021031;28;20397;-61
2022/05/14 12:19:01;;;;;;;2.08;0.80;;;24.20;46.20;;;;;;5013628;28;20504;-61
2022/05/14 12:21:27;;;;;;;2.88;1.15;;;24.20;46.30;;;;;;5020581;28;20033;-61
2022/05/14 12:23:53;;;;;;;2.55;1.05;;;24.20;46.30;;;;;;5021853;28;20087;-61
2022/05/14 12:26:34;;;;;;;1.70;0.90;;;24.20;46.30;;;;;;5018522;28;20494;-60
2022/05/14 12:29:13;;;;;;;1.98;0.90;;;24.20;46.30;;;;;;5019182;28;20105;-62
2022/05/14 12:34:33;;;;;;;1.55;0.80;;;24.20;46.30;;;;;;5017694;28;20126;-60
2022/05/14 12:37:01;;;;;;;2.10;0.90;;;24.20;46.30;;;;;;5022381;28;20847;-60
2022/05/14 12:39:29;;;;;;;1.33;0.80;;;24.20;46.30;;;;;;5020367;28;20037;-62
2022/05/14 12:42:04;;;;;;;2.47;1.00;;;24.20;46.30;;;;;;5021877;28;20033;-62
2022/05/14 12:44:41;;;;;;;1.42;0.70;;;24.20;46.30;;;;;;5020751;28;20037;-60
2022/05/14 12:47:08;;;;;;;1.80;0.90;;;24.20;46.30;;;;;;5021649;28;20025;-63
2022/05/14 12:49:37;;;;;;;1.60;0.80;;;24.20;46.30;;;;;;5019474;28;20036;-62
2022/05/14 12:52:09;;;;;;;2.17;0.90;;;24.20;46.30;;;;;;5020878;28;20120;-62
2022/05/14 12:54:40;;;;;;;1.48;0.82;;;24.20;46.30;;;;;;5018763;28;20028;-60
2022/05/14 12:57:10;;;;;;;1.38;0.70;;;24.20;46.30;;;;;;5022259;28;20113;-62
2022/05/14 12:59:36;;;;;;;;;;;24.30;46.40;;;;;;5020530;28;20064;-61
2022/05/14 13:02:06;;;;;;;1.67;0.90;;;24.30;46.40;;;;;;5014738;28;20007;-62
2022/05/14 13:05:01;;;;;;;1.85;0.80;;;24.20;46.40;;;;;;5014870;28;20036;-60
2022/05/14 13:07:27;;;;;;;1.55;0.80;;;24.30;46.40;;;;;;5015690;28;20495;-62
2022/05/14 13:09:55;;;;;;;1.75;0.90;;;24.20;46.40;;;;;;5015263;28;20034;-62
2022/05/14 13:12:25;;;;;;;1.77;1.00;;;24.30;46.40;;;;;;5017685;28;20056;-62
2022/05/14 13:14:57;;;;;;;1.20;0.75;;;24.30;47.00;;;;;;5015790;28;20476;-62
2022/05/14 13:17:35;;;;;;;0.98;0.80;;;24.30;46.50;;;;;;5018671;28;20431;-61
2022/05/14 13:20:04;;;;;;;1.85;0.70;;;24.30;46.50;;;;;;5012901;28;20025;-60
2022/05/14 13:22:42;;;;;;;2.13;1.00;;;24.30;46.40;;;;;;5016203;28;20839;-62
2022/05/14 13:25:28;;;;;;;1.88;0.80;;;24.30;46.40;;;;;;5014509;28;20055;-60